createdAt,value
2023-01-10T00:03:19.746Z,1.20
2023-01-10T00:07:21.221Z,1.27
2023-01-10T00:11:41.857Z,1.50
2023-01-10T00:15:43.416Z,1.75
2023-01-10T00:19:44.953Z,1.85
2023-01-10T00:23:48.874Z,2.17
2023-01-10T00:28:16.241Z,2.05
2023-01-10T00:32:18.627Z,1.75
2023-01-10T00:36:22.162Z,2.22
2023-01-10T00:40:24.036Z,2.20
2023-01-10T00:44:26.048Z,1.58
2023-01-10T00:48:27.561Z,1.55
2023-01-10T00:52:29.004Z,1.48
2023-01-10T00:56:30.542Z,1.15
2023-01-10T01:00:32.198Z,2.55
2023-01-10T01:04:34.502Z,1.77
2023-01-10T01:08:36.229Z,1.85
2023-01-10T01:12:37.671Z,1.58
2023-01-10T01:16:39.179Z,0.98
2023-01-10T01:20:42.103Z,1.80
2023-01-10T01:24:43.561Z,1.60
2023-01-10T01:28:44.991Z,1.50
2023-01-10T01:32:46.490Z,1.33
2023-01-10T01:36:48.233Z,2.50
2023-01-10T01:40:49.691Z,1.83
2023-01-10T01:45:09.413Z,2.83
2023-01-10T01:49:16.586Z,2.85
2023-01-10T01:53:36.253Z,2.25
2023-01-10T01:57:38.055Z,1.27
2023-01-10T02:01:42.517Z,2.42
2023-01-10T02:05:45.243Z,2.50
2023-01-10T02:09:59.409Z,2.38
2023-01-10T02:14:04.960Z,2.87
2023-01-10T02:18:07.208Z,2.17
2023-01-10T02:22:27.458Z,1.50
2023-01-10T02:27:01.132Z,1.83
2023-01-10T02:31:24.119Z,1.95
2023-01-10T02:36:06.929Z,1.48
2023-01-10T02:40:21.027Z,2.70
2023-01-10T02:44:45.397Z,2.75
2023-01-10T02:48:46.844Z,2.97
2023-01-10T02:52:48.352Z,2.40
2023-01-10T02:57:15.366Z,1.90
2023-01-10T03:01:59.342Z,2.60
2023-01-10T03:06:35.212Z,3.03
2023-01-10T03:10:41.658Z,1.77
2023-01-10T03:14:46.351Z,3.22
2023-01-10T03:18:54.257Z,2.90
2023-01-10T03:22:56.018Z,3.03
2023-01-10T03:27:07.548Z,3.08
2023-01-10T03:31:16.071Z,2.88
2023-01-10T03:35:20.753Z,3.00
2023-01-10T03:39:39.953Z,3.42
2023-01-10T03:44:03.412Z,2.30
2023-01-10T03:48:07.598Z,4.28
2023-01-10T03:52:13.481Z,3.10
2023-01-10T03:56:15.670Z,3.60
2023-01-10T04:00:17.824Z,3.95
2023-01-10T04:04:19.285Z,3.85
2023-01-10T04:08:20.776Z,4.22
2023-01-10T04:12:22.231Z,3.22
2023-01-10T04:16:23.746Z,3.83
2023-01-10T04:20:27.203Z,3.05
2023-01-10T04:24:28.650Z,3.83
2023-01-10T04:28:30.103Z,4.57
2023-01-10T04:32:31.565Z,1.90
2023-01-10T04:36:33.303Z,4.80
2023-01-10T04:40:34.718Z,5.00
2023-01-10T04:44:36.201Z,3.78
2023-01-10T04:48:37.655Z,5.10
2023-01-10T04:52:40.990Z,5.03
2023-01-10T04:56:42.477Z,4.28
2023-01-10T05:00:43.899Z,4.53
2023-01-10T05:04:45.322Z,4.47
2023-01-10T05:08:47.094Z,5.63
2023-01-10T05:12:48.531Z,2.90
2023-01-10T05:16:50.044Z,4.43
2023-01-10T05:20:51.499Z,4.78
2023-01-10T05:24:54.640Z,4.90
2023-01-10T05:28:56.235Z,4.90
2023-01-10T05:32:57.677Z,5.53
2023-01-10T05:36:59.116Z,2.05
2023-01-10T05:41:01.284Z,4.75
2023-01-10T05:45:03.443Z,2.95
2023-01-10T05:49:04.981Z,2.78
2023-01-10T05:53:07.236Z,4.68
2023-01-10T05:57:08.707Z,5.55
2023-01-10T06:01:10.635Z,4.22
2023-01-10T06:05:12.088Z,4.93
2023-01-10T06:09:13.537Z,5.55
2023-01-10T06:13:15.285Z,5.22
2023-01-10T06:17:16.804Z,4.50
2023-01-10T06:21:18.388Z,3.83
2023-01-10T06:25:19.853Z,5.10
2023-01-10T06:29:21.365Z,6.55
2023-01-10T06:33:22.785Z,5.38
2023-01-10T06:37:24.226Z,5.65
2023-01-10T06:41:25.786Z,5.45
2023-01-10T06:45:27.600Z,6.75
2023-01-10T06:49:29.890Z,5.57
2023-01-10T06:53:32.460Z,4.43
2023-01-10T06:57:38.247Z,4.57
2023-01-10T07:01:39.950Z,4.07
2023-01-10T07:05:41.499Z,5.68
2023-01-10T07:09:43.006Z,4.93
2023-01-10T07:13:44.496Z,4.95
2023-01-10T07:17:45.946Z,5.53
2023-01-10T07:21:47.409Z,5.97
2023-01-10T07:25:48.846Z,4.70
2023-01-10T07:29:50.275Z,5.53
2023-01-10T07:33:52.344Z,5.47
2023-01-10T07:37:53.994Z,6.05
2023-01-10T07:41:56.231Z,6.10
2023-01-10T07:46:02.749Z,6.18
2023-01-10T07:50:04.644Z,4.22
2023-01-10T07:54:06.243Z,5.47
2023-01-10T07:58:08.027Z,5.50
2023-01-10T08:02:11.223Z,5.72
2023-01-10T08:06:14.233Z,7.55
2023-01-10T08:10:17.062Z,6.20
2023-01-10T08:14:18.620Z,6.97
2023-01-10T08:18:21.777Z,4.90
2023-01-10T08:22:23.178Z,5.43
2023-01-10T08:26:24.652Z,5.75
2023-01-10T08:30:26.158Z,6.15
2023-01-10T08:34:27.764Z,5.82
2023-01-10T08:38:29.369Z,2.78
2023-01-10T08:42:30.958Z,5.22
2023-01-10T08:46:32.704Z,5.32
2023-01-10T08:50:34.333Z,5.97
2023-01-10T08:54:35.822Z,6.78
2023-01-10T08:58:37.259Z,6.05
2023-01-10T09:02:42.082Z,4.70
2023-01-10T09:06:43.594Z,7.13
2023-01-10T09:10:45.130Z,6.38
2023-01-10T09:14:46.683Z,3.40
2023-01-10T09:18:48.255Z,6.25
2023-01-10T09:22:49.748Z,5.78
2023-01-10T09:26:51.220Z,4.63
2023-01-10T09:30:53.282Z,5.25
2023-01-10T09:34:54.706Z,5.10
2023-01-10T09:38:56.154Z,5.18
2023-01-10T09:43:10.339Z,2.95
2023-01-10T09:47:23.874Z,6.45
2023-01-10T09:51:25.347Z,2.22
2023-01-10T09:55:33.640Z,5.32
2023-01-10T09:59:41.650Z,6.10
2023-01-10T10:04:00.449Z,5.72
2023-01-10T10:08:02.600Z,5.22
2023-01-10T10:12:04.053Z,4.15
2023-01-10T10:16:25.251Z,5.68
2023-01-10T10:20:49.360Z,5.38
2023-01-10T10:25:15.667Z,2.13
2023-01-10T10:29:22.809Z,5.55
2023-01-10T10:34:05.222Z,5.78
2023-01-10T10:38:18.455Z,4.22
2023-01-10T10:42:20.149Z,2.22
2023-01-10T10:46:22.426Z,5.15
2023-01-10T10:50:58.112Z,4.60
2023-01-10T10:54:59.622Z,3.95
2023-01-10T10:59:01.328Z,4.05
2023-01-10T11:03:13.294Z,4.30
2023-01-10T11:07:17.488Z,4.00
2023-01-10T11:11:33.898Z,4.72
2023-01-10T11:15:37.406Z,3.42
2023-01-10T11:19:38.843Z,3.67
2023-01-10T11:23:42.710Z,1.75
2023-01-10T11:27:51.561Z,2.58
2023-01-10T11:31:55.953Z,2.92
2023-01-10T11:36:09.265Z,1.67
2023-01-10T11:40:30.068Z,1.55
2023-01-10T11:44:31.581Z,3.72
2023-01-10T11:49:03.757Z,2.55
2023-01-10T11:53:05.315Z,3.60
2023-01-10T11:57:19.547Z,2.72
2023-01-10T12:01:27.332Z,2.47
2023-01-10T12:05:29.261Z,3.03
2023-01-10T12:09:32.735Z,3.05
2023-01-10T12:13:50.446Z,2.95
2023-01-10T12:17:53.107Z,2.35
2023-01-10T12:21:59.537Z,2.75
2023-01-10T12:26:11.470Z,2.05
2023-01-10T12:30:24.981Z,2.20
2023-01-10T12:34:39.758Z,1.80
2023-01-10T12:39:03.900Z,2.30
2023-01-10T12:43:48.718Z,2.72
2023-01-10T12:48:08.444Z,2.28
2023-01-10T12:52:18.132Z,2.20
2023-01-10T12:56:20.249Z,2.40
2023-01-10T13:00:32.794Z,2.22
2023-01-10T13:04:39.471Z,2.50
2023-01-10T13:08:43.284Z,1.52
2023-01-10T13:12:50.003Z,2.75
2023-01-10T13:17:21.822Z,2.42
2023-01-10T13:21:23.311Z,2.63
2023-01-10T13:25:30.362Z,6.25
2023-01-10T13:29:40.671Z,1.77
2023-01-10T13:33:55.445Z,2.60
2023-01-10T13:37:57.103Z,2.50
2023-01-10T13:42:17.066Z,1.67
2023-01-10T13:46:18.613Z,1.67
2023-01-10T13:50:23.223Z,2.72
2023-01-10T13:54:28.357Z,2.38
2023-01-10T13:59:00.002Z,2.88
2023-01-10T14:03:01.548Z,2.63
2023-01-10T14:07:23.135Z,3.03
2023-01-10T14:12:01.781Z,3.45
2023-01-10T14:16:05.163Z,2.40
2023-01-10T14:20:12.906Z,2.88
2023-01-10T14:24:32.032Z,1.98
2023-01-10T14:28:35.387Z,2.60
2023-01-10T14:32:43.615Z,2.83
2023-01-10T14:36:53.625Z,1.75
2023-01-10T14:41:00.450Z,2.20
2023-01-10T14:45:14.176Z,2.28
2023-01-10T14:49:35.479Z,2.33
2023-01-10T14:53:36.932Z,2.42
2023-01-10T14:57:38.626Z,2.42
2023-01-10T15:01:40.296Z,1.75
2023-01-10T15:05:51.827Z,2.88
2023-01-10T15:09:57.181Z,1.27
2023-01-10T15:14:08.103Z,2.70
2023-01-10T15:18:27.940Z,3.45
2023-01-10T15:22:32.716Z,2.65
2023-01-10T15:26:34.275Z,3.33
2023-01-10T15:30:37.406Z,1.90
2023-01-10T15:34:39.672Z,3.50
2023-01-10T15:38:45.744Z,4.22
2023-01-10T15:42:47.597Z,3.30
2023-01-10T15:46:58.028Z,3.50
2023-01-10T15:51:10.586Z,3.15
2023-01-10T15:55:34.942Z,3.38
2023-01-10T15:59:39.729Z,2.80
2023-01-10T16:03:48.042Z,3.40
2023-01-10T16:07:49.878Z,2.90
2023-01-10T16:12:12.272Z,2.45
2023-01-10T16:16:18.670Z,2.17
2023-01-10T16:20:30.701Z,3.00
2023-01-10T16:24:35.517Z,3.25
2023-01-10T16:28:37.922Z,2.75
2023-01-10T16:32:39.346Z,3.85
2023-01-10T16:36:43.015Z,2.63
2023-01-10T16:40:48.842Z,3.42
2023-01-10T16:44:50.250Z,2.85
2023-01-10T16:48:53.265Z,3.20
2023-01-10T16:52:54.796Z,2.90
2023-01-10T16:56:56.224Z,3.33
2023-01-10T17:00:58.928Z,3.28
2023-01-10T17:05:00.417Z,2.38
2023-01-10T17:09:01.924Z,3.78
2023-01-10T17:13:04.702Z,1.98
2023-01-10T17:17:06.176Z,3.33
2023-01-10T17:21:14.365Z,2.55
2023-01-10T17:25:20.905Z,4.20
2023-01-10T17:29:23.376Z,3.83
2023-01-10T17:33:26.069Z,3.55
2023-01-10T17:37:27.569Z,3.90
2023-01-10T17:41:29.086Z,4.03
2023-01-10T17:45:30.800Z,3.95
2023-01-10T17:49:32.439Z,3.47
2023-01-10T17:53:34.126Z,3.40
2023-01-10T17:57:38.174Z,2.72
2023-01-10T18:01:39.932Z,3.00
2023-01-10T18:06:02.054Z,3.13
2023-01-10T18:10:04.146Z,4.22
2023-01-10T18:14:24.073Z,2.47
2023-01-10T18:18:27.705Z,4.35
2023-01-10T18:22:47.689Z,3.20
2023-01-10T18:26:49.618Z,4.43
2023-01-10T18:30:51.231Z,3.40
2023-01-10T18:34:52.706Z,3.13
2023-01-10T18:38:54.236Z,4.50
2023-01-10T18:42:57.529Z,3.63
2023-01-10T18:46:58.977Z,2.30
2023-01-10T18:51:02.092Z,3.47
2023-01-10T18:55:03.885Z,4.63
2023-01-10T18:59:05.394Z,3.65
2023-01-10T19:03:07.495Z,3.60
2023-01-10T19:07:08.993Z,2.28
2023-01-10T19:11:16.451Z,4.05
2023-01-10T19:15:18.291Z,3.15
2023-01-10T19:19:19.739Z,4.00
2023-01-10T19:23:21.204Z,4.43
2023-01-10T19:27:22.749Z,5.15
2023-01-10T19:31:27.523Z,4.07
2023-01-10T19:35:34.385Z,4.53
2023-01-10T19:39:36.562Z,5.07
2023-01-10T19:43:38.100Z,4.55
2023-01-10T19:47:39.549Z,4.15
2023-01-10T19:51:41.126Z,3.47
2023-01-10T19:55:42.695Z,3.35
2023-01-10T19:59:45.414Z,2.97
2023-01-10T20:03:47.753Z,4.10
2023-01-10T20:07:50.679Z,3.20
2023-01-10T20:11:52.277Z,4.18
2023-01-10T20:15:54.088Z,3.90
2023-01-10T20:19:56.132Z,4.03
2023-01-10T20:23:57.575Z,4.20
2023-01-10T20:27:59.023Z,4.13
2023-01-10T20:32:02.457Z,4.10
2023-01-10T20:36:06.905Z,3.58
2023-01-10T20:40:09.765Z,3.70
2023-01-10T20:44:11.254Z,4.35
2023-01-10T20:48:12.691Z,3.72
2023-01-10T20:52:14.170Z,2.97
2023-01-10T20:56:19.170Z,3.05
2023-01-10T21:00:20.931Z,3.00
2023-01-10T21:04:22.330Z,2.80
2023-01-10T21:08:23.987Z,3.10
2023-01-10T21:12:27.739Z,2.92
2023-01-10T21:16:29.268Z,2.47
2023-01-10T21:20:30.741Z,3.60
2023-01-10T21:24:32.191Z,2.25
2023-01-10T21:28:38.740Z,2.65
2023-01-10T21:32:40.311Z,3.30
2023-01-10T21:36:42.554Z,2.38
2023-01-10T21:40:43.987Z,3.13
2023-01-10T21:44:45.447Z,2.65
2023-01-10T21:48:46.940Z,2.58
2023-01-10T21:52:48.468Z,1.75
2023-01-10T21:56:49.922Z,2.88
2023-01-10T22:00:55.442Z,3.10
2023-01-10T22:04:57.084Z,2.97
2023-01-10T22:08:58.573Z,2.33
2023-01-10T22:13:00.098Z,2.63
2023-01-10T22:17:02.256Z,2.38
2023-01-10T22:21:03.732Z,1.98
2023-01-10T22:25:05.783Z,2.17
2023-01-10T22:29:07.285Z,2.55
2023-01-10T22:33:08.761Z,3.00
2023-01-10T22:37:10.184Z,2.78
2023-01-10T22:41:16.259Z,1.88
2023-01-10T22:45:18.477Z,1.80
2023-01-10T22:49:20.816Z,3.03
2023-01-10T22:53:22.323Z,2.30
2023-01-10T22:57:23.809Z,2.83
2023-01-10T23:01:26.174Z,2.08
2023-01-10T23:05:27.726Z,2.15
2023-01-10T23:09:29.172Z,1.10
2023-01-10T23:13:30.884Z,2.63
2023-01-10T23:17:32.441Z,2.00
2023-01-10T23:21:33.857Z,2.55
2023-01-10T23:25:36.142Z,2.55
2023-01-10T23:29:37.599Z,2.03
2023-01-10T23:33:39.095Z,2.67
2023-01-10T23:37:40.591Z,2.08
2023-01-10T23:41:42.011Z,2.63
2023-01-10T23:45:44.149Z,2.47
2023-01-10T23:49:45.590Z,3.55
2023-01-10T23:53:47.040Z,2.28
2023-01-10T23:57:48.525Z,2.28
